createdAt,value
2023-03-26T00:01:20.744Z,2.10
2023-03-26T00:03:53.299Z,2.20
2023-03-26T00:06:24.630Z,2.30
2023-03-26T00:08:52.087Z,3.00
2023-03-26T00:11:20.364Z,2.60
2023-03-26T00:13:47.333Z,3.20
2023-03-26T00:16:15.791Z,4.50
2023-03-26T00:18:43.156Z,4.20
2023-03-26T00:21:14.428Z,4.40
2023-03-26T00:23:44.719Z,4.40
2023-03-26T00:26:12.228Z,3.60
2023-03-26T00:28:40.783Z,3.80
2023-03-26T00:31:09.272Z,4.00
2023-03-26T00:33:37.820Z,3.40
2023-03-26T00:36:06.104Z,3.10
2023-03-26T00:38:53.322Z,3.30
2023-03-26T00:41:30.197Z,2.70
2023-03-26T00:43:58.056Z,2.40
2023-03-26T00:46:27.856Z,2.70
2023-03-26T00:48:58.407Z,3.00
2023-03-26T00:51:28.062Z,3.50
2023-03-26T00:53:57.420Z,3.40
2023-03-26T00:56:27.036Z,3.70
2023-03-26T00:58:56.997Z,3.20
2023-03-26T01:01:28.942Z,2.70
2023-03-26T01:04:07.424Z,2.80
2023-03-26T01:06:41.339Z,3.90
2023-03-26T01:09:32.262Z,3.00
2023-03-26T01:12:01.035Z,4.00
2023-03-26T01:14:52.047Z,2.90
2023-03-26T01:17:42.536Z,3.30
2023-03-26T01:20:14.322Z,2.90
2023-03-26T01:22:43.847Z,3.40
2023-03-26T01:25:14.009Z,3.40
2023-03-26T01:27:50.001Z,2.70
2023-03-26T01:30:30.356Z,3.10
2023-03-26T01:33:33.060Z,2.90
2023-03-26T01:36:18.457Z,3.20
2023-03-26T01:39:07.351Z,3.40
2023-03-26T01:41:42.328Z,2.80
2023-03-26T01:44:29.504Z,2.90
2023-03-26T01:46:58.651Z,3.10
2023-03-26T01:49:27.482Z,3.70
2023-03-26T01:52:05.845Z,3.30
2023-03-26T01:54:33.546Z,3.60
2023-03-26T01:57:08.857Z,3.30
2023-03-26T01:59:44.319Z,3.50
2023-03-26T02:02:15.197Z,3.00
2023-03-26T02:04:52.468Z,3.00
2023-03-26T02:07:38.264Z,2.60
2023-03-26T02:10:10.717Z,2.50
2023-03-26T02:12:48.378Z,3.30
2023-03-26T02:15:18.223Z,3.60
2023-03-26T02:17:46.523Z,3.40
2023-03-26T02:20:14.049Z,3.10
2023-03-26T02:22:41.161Z,3.70
2023-03-26T02:25:10.542Z,3.40
2023-03-26T02:27:37.992Z,3.60
2023-03-26T02:30:10.064Z,3.80
2023-03-26T02:32:58.630Z,2.90
2023-03-26T02:35:26.138Z,3.10
2023-03-26T02:38:00.005Z,3.10
2023-03-26T02:40:28.986Z,2.90
2023-03-26T02:42:58.873Z,2.30
2023-03-26T02:45:26.946Z,2.80
2023-03-26T02:48:20.395Z,2.00
2023-03-26T02:50:53.685Z,2.40
2023-03-26T02:53:40.725Z,2.50
2023-03-26T02:56:39.924Z,2.00
2023-03-26T02:59:30.825Z,1.70
2023-03-26T03:02:17.760Z,2.00
2023-03-26T03:04:52.268Z,1.70
2023-03-26T03:07:19.821Z,2.00
2023-03-26T03:09:49.980Z,2.20
2023-03-26T03:12:45.796Z,1.90
2023-03-26T03:15:15.414Z,2.30
2023-03-26T03:17:42.593Z,2.50
2023-03-26T03:20:10.703Z,2.10
2023-03-26T03:22:45.278Z,3.10
2023-03-26T03:25:16.982Z,1.90
2023-03-26T03:28:10.726Z,2.20
2023-03-26T03:30:58.510Z,1.60
2023-03-26T03:33:32.806Z,1.40
2023-03-26T03:36:20.603Z,1.20
2023-03-26T03:38:54.550Z,1.40
2023-03-26T03:41:21.402Z,1.30
2023-03-26T03:43:48.585Z,1.50
2023-03-26T03:46:19.626Z,1.80
2023-03-26T03:48:50.837Z,1.50
2023-03-26T03:51:30.704Z,1.30
2023-03-26T03:53:59.898Z,1.90
2023-03-26T03:57:07.134Z,1.40
2023-03-26T04:00:06.860Z,1.50
2023-03-26T04:03:34.172Z,1.40
2023-03-26T04:06:18.391Z,1.40
2023-03-26T04:09:08.477Z,1.20
2023-03-26T04:11:51.276Z,1.40
2023-03-26T04:14:36.533Z,1.60
2023-03-26T04:17:14.457Z,1.60
2023-03-26T04:19:48.181Z,1.50
2023-03-26T04:22:24.035Z,1.30
2023-03-26T04:25:11.723Z,1.60
2023-03-26T04:27:49.014Z,1.00
2023-03-26T04:30:48.351Z,1.40
2023-03-26T04:33:54.685Z,1.40
2023-03-26T04:36:29.600Z,2.00
2023-03-26T04:39:02.515Z,1.80
2023-03-26T04:41:49.661Z,1.50
2023-03-26T04:44:34.303Z,1.40
2023-03-26T04:47:12.532Z,1.70
2023-03-26T04:49:48.124Z,1.40
2023-03-26T04:52:18.403Z,1.20
2023-03-26T04:55:36.441Z,1.50
2023-03-26T04:58:18.538Z,2.00
2023-03-26T05:01:16.274Z,1.80
2023-03-26T05:04:15.973Z,4.00
2023-03-26T05:06:48.699Z,3.10
2023-03-26T05:10:02.760Z,2.30
2023-03-26T05:13:03.009Z,2.30
2023-03-26T05:15:38.014Z,2.40
2023-03-26T05:20:50.031Z,2.20
2023-03-26T05:23:28.793Z,2.20
2023-03-26T05:26:18.746Z,2.10
2023-03-26T05:28:52.624Z,2.20
2023-03-26T05:31:40.985Z,1.90
2023-03-26T05:34:38.144Z,1.70
2023-03-26T05:37:11.534Z,2.20
2023-03-26T05:40:00.628Z,1.80
2023-03-26T05:42:44.703Z,2.10
2023-03-26T05:45:37.195Z,2.70
2023-03-26T05:48:14.912Z,2.50
2023-03-26T05:50:55.782Z,2.30
2023-03-26T05:53:28.945Z,2.20
2023-03-26T05:56:40.871Z,1.80
2023-03-26T05:59:26.181Z,2.20
2023-03-26T06:02:12.005Z,5.30
2023-03-26T06:05:32.005Z,1.40
2023-03-26T06:08:11.936Z,1.50
2023-03-26T06:10:45.038Z,1.50
2023-03-26T06:13:13.150Z,2.20
2023-03-26T06:15:40.131Z,2.30
2023-03-26T06:18:36.417Z,3.10
2023-03-26T06:21:24.030Z,6.50
2023-03-26T06:24:21.113Z,3.80
2023-03-26T06:27:13.726Z,2.90
2023-03-26T06:30:12.722Z,2.30
2023-03-26T06:32:58.460Z,2.70
2023-03-26T06:35:29.967Z,2.10
2023-03-26T06:38:07.153Z,2.60
2023-03-26T06:40:44.432Z,1.90
2023-03-26T06:43:55.209Z,2.00
2023-03-26T06:46:40.211Z,5.00
2023-03-26T06:49:28.445Z,2.20
2023-03-26T06:52:20.812Z,2.20
2023-03-26T06:54:59.678Z,1.70
2023-03-26T06:57:47.888Z,2.10
2023-03-26T07:00:32.941Z,2.80
2023-03-26T07:03:21.757Z,1.80
2023-03-26T07:06:16.934Z,1.50
2023-03-26T07:09:02.953Z,2.60
2023-03-26T07:11:38.912Z,1.50
2023-03-26T07:14:37.539Z,1.40
2023-03-26T07:17:39.778Z,11.00
2023-03-26T07:20:14.341Z,2.80
2023-03-26T07:22:48.968Z,1.80
2023-03-26T07:25:58.973Z,5.90
2023-03-26T07:29:04.140Z,2.10
2023-03-26T07:32:41.484Z,1.90
2023-03-26T07:35:37.583Z,2.50
2023-03-26T07:38:19.650Z,2.60
2023-03-26T07:41:28.477Z,2.10
2023-03-26T07:44:30.197Z,3.40
2023-03-26T07:47:40.611Z,3.20
2023-03-26T07:50:26.174Z,2.40
2023-03-26T07:53:23.149Z,2.10
2023-03-26T07:56:28.308Z,2.00
2023-03-26T07:59:27.504Z,2.40
2023-03-26T08:02:37.870Z,2.70
2023-03-26T08:05:36.384Z,2.20
2023-03-26T08:08:46.526Z,2.30
2023-03-26T08:11:52.812Z,2.60
2023-03-26T08:14:41.284Z,3.60
2023-03-26T08:17:20.416Z,1.70
2023-03-26T08:20:12.796Z,3.90
2023-03-26T08:22:57.530Z,6.00
2023-03-26T08:25:48.219Z,4.90
2023-03-26T08:28:37.282Z,2.50
2023-03-26T08:31:14.673Z,1.80
2023-03-26T08:33:41.922Z,2.20
2023-03-26T08:36:22.793Z,3.30
2023-03-26T08:38:55.844Z,16.80
2023-03-26T08:41:34.727Z,3.70
2023-03-26T08:44:13.940Z,2.70
2023-03-26T08:47:09.610Z,1.80
2023-03-26T08:49:58.931Z,1.60
2023-03-26T08:52:45.965Z,2.10
2023-03-26T08:55:51.316Z,3.50
2023-03-26T08:58:57.557Z,3.10
2023-03-26T09:01:36.139Z,3.20
2023-03-26T09:04:14.932Z,2.80
2023-03-26T09:07:00.993Z,2.30
2023-03-26T09:09:57.840Z,3.70
2023-03-26T09:12:43.417Z,4.80
2023-03-26T09:15:35.153Z,3.90
2023-03-26T09:18:16.950Z,2.50
2023-03-26T09:21:02.304Z,3.20
2023-03-26T09:23:45.058Z,3.00
2023-03-26T09:26:25.753Z,4.10
2023-03-26T09:29:10.423Z,4.20
2023-03-26T09:32:03.200Z,4.00
2023-03-26T09:34:34.490Z,2.20
2023-03-26T09:37:30.009Z,2.70
2023-03-26T09:40:29.149Z,2.00
2023-03-26T09:43:16.425Z,3.30
2023-03-26T09:45:54.852Z,1.60
2023-03-26T09:48:39.981Z,2.00
2023-03-26T09:51:56.484Z,2.10
2023-03-26T09:54:43.911Z,5.20
2023-03-26T09:57:22.613Z,3.00
2023-03-26T10:00:18.376Z,1.60
2023-03-26T10:03:26.387Z,1.60
2023-03-26T10:06:46.535Z,3.70
2023-03-26T10:09:22.619Z,2.10
2023-03-26T10:12:09.733Z,2.10
2023-03-26T10:14:42.168Z,1.80
2023-03-26T10:17:19.130Z,2.60
2023-03-26T10:20:12.451Z,1.30
2023-03-26T10:22:54.818Z,1.70
2023-03-26T10:25:40.375Z,2.10
2023-03-26T10:28:29.713Z,1.40
2023-03-26T10:31:06.739Z,1.50
2023-03-26T10:33:51.678Z,1.60
2023-03-26T10:36:58.930Z,1.70
2023-03-26T10:39:36.726Z,1.80
2023-03-26T10:42:15.528Z,1.50
2023-03-26T10:45:21.161Z,1.70
2023-03-26T10:47:56.285Z,1.90
2023-03-26T10:50:33.168Z,1.60
2023-03-26T10:53:26.806Z,3.70
2023-03-26T10:56:06.761Z,2.20
2023-03-26T10:58:52.797Z,2.20
2023-03-26T11:01:39.734Z,2.90
2023-03-26T11:04:26.778Z,3.40
2023-03-26T11:07:05.133Z,2.90
2023-03-26T11:10:01.083Z,2.80
2023-03-26T11:12:43.324Z,7.40
2023-03-26T11:15:28.735Z,3.20
2023-03-26T11:18:15.869Z,2.70
2023-03-26T11:21:18.653Z,2.10
2023-03-26T11:24:05.231Z,1.80
2023-03-26T11:27:14.866Z,2.40
2023-03-26T11:29:48.575Z,2.20
2023-03-26T11:32:20.534Z,2.40
2023-03-26T11:35:09.002Z,2.90
2023-03-26T11:37:50.054Z,2.50
2023-03-26T11:40:20.821Z,2.80
2023-03-26T11:42:49.800Z,2.30
2023-03-26T11:45:30.476Z,3.00
2023-03-26T11:48:17.367Z,2.70
2023-03-26T12:04:14.569Z,2.30
2023-03-26T12:06:51.953Z,3.10
2023-03-26T12:09:20.430Z,3.00
2023-03-26T12:11:52.876Z,2.90
2023-03-26T12:14:28.401Z,2.80
2023-03-26T12:16:58.008Z,3.60
2023-03-26T12:19:28.832Z,2.60
2023-03-26T12:21:57.207Z,3.30
2023-03-26T12:24:35.621Z,3.70
2023-03-26T12:27:06.558Z,3.10
2023-03-26T12:32:22.521Z,4.60
2023-03-26T12:34:53.577Z,3.10
2023-03-26T12:37:38.615Z,4.20
2023-03-26T12:40:27.353Z,2.70
2023-03-26T12:44:50.337Z,7.40
2023-03-26T12:47:15.134Z,2.40
2023-03-26T12:48:48.025Z,3.80
2023-03-26T12:51:21.822Z,2.30
2023-03-26T12:54:10.004Z,1.90
2023-03-26T12:56:44.030Z,2.90
2023-03-26T12:59:24.097Z,3.20
2023-03-26T13:01:59.841Z,9.50
2023-03-26T13:04:34.765Z,8.90
2023-03-26T13:07:22.336Z,10.70
2023-03-26T13:09:58.440Z,16.30
2023-03-26T13:12:38.362Z,7.90
2023-03-26T13:15:25.182Z,6.70
2023-03-26T13:18:03.764Z,6.50
2023-03-26T13:20:45.419Z,5.60
2023-03-26T13:23:35.726Z,4.80
2023-03-26T13:26:12.112Z,2.80
2023-03-26T13:28:56.459Z,7.50
2023-03-26T13:31:39.106Z,5.50
2023-03-26T13:34:14.914Z,3.80
2023-03-26T13:36:42.994Z,10.60
2023-03-26T13:39:14.334Z,9.10
2023-03-26T13:41:42.733Z,4.20
2023-03-26T13:44:29.938Z,2.80
2023-03-26T13:47:01.222Z,3.30
2023-03-26T13:49:33.566Z,5.10
2023-03-26T13:52:07.547Z,6.40
2023-03-26T13:54:36.138Z,4.00
2023-03-26T13:57:24.883Z,5.50
2023-03-26T13:59:57.536Z,14.00
2023-03-26T14:02:42.611Z,15.70
2023-03-26T14:05:16.941Z,28.20
2023-03-26T14:07:48.786Z,20.70
2023-03-26T14:10:19.512Z,22.40
2023-03-26T14:13:07.934Z,16.20
2023-03-26T14:15:36.594Z,8.10
2023-03-26T14:18:27.223Z,15.30
2023-03-26T14:21:04.228Z,64.60
2023-03-26T14:23:41.429Z,9.20
2023-03-26T14:26:22.890Z,14.70
2023-03-26T14:28:56.654Z,4.00
2023-03-26T14:31:36.458Z,10.80
2023-03-26T14:34:26.280Z,23.70
2023-03-26T14:37:09.748Z,23.00
2023-03-26T14:39:47.170Z,30.60
2023-03-26T14:42:24.667Z,8.40
2023-03-26T14:44:52.592Z,32.10
2023-03-26T14:47:21.577Z,5.60
2023-03-26T14:49:55.374Z,6.10
2023-03-26T14:52:42.490Z,11.20
2023-03-26T14:55:17.175Z,4.80
2023-03-26T14:58:02.019Z,2.70
2023-03-26T15:00:39.502Z,2.90
2023-03-26T15:03:13.614Z,1.60
2023-03-26T15:05:52.156Z,2.60
2023-03-26T15:08:39.015Z,3.10
2023-03-26T15:11:20.514Z,11.10
2023-03-26T15:13:49.660Z,5.10
2023-03-26T15:16:43.956Z,27.50
2023-03-26T15:19:12.017Z,12.10
2023-03-26T15:22:02.141Z,4.60
2023-03-26T15:24:36.091Z,38.70
2023-03-26T15:29:38.640Z,10.50
2023-03-26T15:32:19.086Z,16.20
2023-03-26T15:34:56.850Z,14.40
2023-03-26T15:37:43.668Z,6.80
2023-03-26T15:40:30.635Z,21.30
2023-03-26T15:43:01.988Z,37.20
2023-03-26T15:45:33.402Z,28.10
2023-03-26T15:48:14.022Z,51.70
2023-03-26T15:51:01.129Z,131.40
2023-03-26T15:53:43.503Z,45.00
2023-03-26T15:56:11.415Z,47.40
2023-03-26T15:58:58.182Z,56.40
2023-03-26T16:01:34.015Z,53.00
2023-03-26T16:04:23.422Z,70.90
2023-03-26T16:06:55.677Z,30.20
2023-03-26T16:09:45.870Z,26.00
2023-03-26T16:12:16.849Z,9.30
2023-03-26T16:14:47.006Z,8.60
2023-03-26T16:17:26.247Z,8.40
2023-03-26T16:20:19.869Z,22.40
2023-03-26T16:22:54.932Z,30.10
2023-03-26T16:25:28.400Z,13.10
2023-03-26T16:28:14.216Z,7.60
2023-03-26T16:30:46.177Z,8.90
2023-03-26T16:33:15.947Z,11.40
2023-03-26T16:36:02.781Z,13.40
2023-03-26T16:39:00.274Z,25.40
2023-03-26T16:41:51.427Z,27.30
2023-03-26T16:44:47.455Z,10.00
2023-03-26T16:47:18.389Z,23.20
2023-03-26T16:50:07.528Z,12.90
2023-03-26T16:52:55.078Z,13.50
2023-03-26T16:55:42.430Z,14.00
2023-03-26T16:58:15.485Z,8.30
2023-03-26T17:00:49.744Z,10.00
2023-03-26T17:03:27.296Z,7.00
2023-03-26T17:05:58.547Z,8.50
2023-03-26T17:08:54.521Z,6.00
2023-03-26T17:11:22.871Z,3.90
2023-03-26T17:13:51.126Z,6.10
2023-03-26T17:16:19.226Z,14.60
2023-03-26T17:18:47.468Z,10.60
2023-03-26T17:21:18.626Z,22.20
2023-03-26T17:24:01.856Z,11.10
2023-03-26T17:26:49.520Z,18.60
2023-03-26T17:29:41.721Z,15.70
2023-03-26T17:32:12.413Z,16.00
2023-03-26T17:34:58.300Z,16.30
2023-03-26T17:37:37.271Z,18.50
2023-03-26T17:40:12.331Z,20.70
2023-03-26T17:42:59.978Z,17.80
2023-03-26T17:45:30.719Z,24.70
2023-03-26T17:48:18.946Z,26.30
2023-03-26T17:51:02.537Z,30.50
2023-03-26T17:53:31.454Z,26.40
2023-03-26T17:56:03.730Z,28.60
2023-03-26T17:58:47.948Z,17.70
2023-03-26T18:01:16.501Z,13.20
2023-03-26T18:03:49.704Z,17.50
2023-03-26T18:06:20.794Z,18.10
2023-03-26T18:08:54.688Z,22.30
2023-03-26T18:11:41.238Z,18.10
2023-03-26T18:14:28.297Z,20.40
2023-03-26T18:17:07.164Z,21.10
2023-03-26T18:19:49.375Z,20.20
2023-03-26T18:22:20.871Z,18.40
2023-03-26T18:24:49.566Z,19.90
2023-03-26T18:27:22.867Z,15.70
2023-03-26T18:30:02.856Z,10.70
2023-03-26T18:32:33.673Z,9.00
2023-03-26T18:35:24.396Z,6.50
2023-03-26T18:37:54.516Z,5.80
2023-03-26T18:40:32.942Z,6.80
2023-03-26T18:43:01.668Z,5.50
2023-03-26T18:45:39.587Z,7.10
2023-03-26T18:48:13.890Z,5.90
2023-03-26T18:53:20.826Z,3.80
2023-03-26T18:55:50.573Z,3.70
2023-03-26T18:58:27.849Z,5.10
2023-03-26T19:01:05.337Z,5.10
2023-03-26T19:03:39.665Z,5.40
2023-03-26T19:06:10.354Z,5.50
2023-03-26T19:08:39.125Z,5.20
2023-03-26T19:11:08.667Z,6.10
2023-03-26T19:13:37.973Z,6.60
2023-03-26T19:16:23.452Z,5.90
2023-03-26T19:18:52.500Z,7.30
2023-03-26T19:21:23.385Z,7.50
2023-03-26T19:26:19.670Z,8.10
2023-03-26T19:29:02.693Z,7.30
2023-03-26T19:31:57.078Z,7.70
2023-03-26T19:34:31.838Z,7.30
2023-03-26T19:37:04.447Z,6.90
2023-03-26T19:39:47.068Z,5.00
2023-03-26T19:42:17.635Z,5.80
2023-03-26T19:44:50.454Z,6.00
2023-03-26T19:47:35.536Z,5.30
2023-03-26T19:50:23.492Z,6.30
2023-03-26T19:53:16.221Z,6.10
2023-03-26T19:56:06.300Z,5.40
2023-03-26T19:58:35.717Z,7.00
2023-03-26T20:01:04.569Z,6.10
2023-03-26T20:03:45.416Z,5.70
2023-03-26T20:06:14.773Z,5.50
2023-03-26T20:08:43.205Z,6.50
2023-03-26T20:11:21.750Z,8.90
2023-03-26T20:13:50.222Z,8.70
2023-03-26T20:16:32.021Z,9.30
2023-03-26T20:19:05.248Z,7.80
2023-03-26T20:21:34.802Z,7.10
2023-03-26T20:24:08.771Z,7.70
2023-03-26T20:26:36.780Z,6.60
2023-03-26T20:29:05.922Z,5.50
2023-03-26T20:31:41.916Z,4.80
2023-03-26T20:34:36.424Z,5.00
2023-03-26T20:37:10.044Z,4.90
2023-03-26T20:39:39.590Z,4.60
2023-03-26T20:42:10.136Z,4.90
2023-03-26T20:44:38.432Z,4.60
2023-03-26T20:47:06.495Z,4.20
2023-03-26T20:49:43.951Z,4.20
2023-03-26T20:52:13.912Z,4.20
2023-03-26T20:54:42.125Z,3.80
2023-03-26T20:57:13.511Z,4.80
2023-03-26T20:59:50.780Z,5.60
2023-03-26T21:02:20.435Z,5.90
2023-03-26T21:05:19.118Z,6.30
2023-03-26T21:07:56.967Z,8.20
2023-03-26T21:10:36.157Z,6.40
2023-03-26T21:13:08.335Z,6.70
2023-03-26T21:15:37.030Z,6.10
2023-03-26T21:18:05.357Z,6.10
2023-03-26T21:20:34.783Z,5.90
2023-03-26T21:23:10.006Z,5.20
2023-03-26T21:25:56.528Z,5.40
2023-03-26T21:28:42.360Z,5.20
2023-03-26T21:31:14.002Z,5.10
2023-03-26T21:33:42.695Z,5.10
2023-03-26T21:36:11.920Z,4.70
2023-03-26T21:38:43.210Z,5.30
2023-03-26T21:41:19.054Z,4.80
2023-03-26T21:43:47.229Z,5.40
2023-03-26T21:46:15.785Z,5.80
2023-03-26T21:48:44.298Z,5.40
2023-03-26T21:51:15.044Z,6.50
2023-03-26T21:53:43.327Z,5.70
2023-03-26T21:56:23.531Z,5.70
2023-03-26T21:58:54.705Z,6.70
2023-03-26T22:03:51.245Z,5.40
2023-03-26T22:06:25.831Z,5.70
2023-03-26T22:08:54.155Z,5.70
2023-03-26T22:11:22.261Z,5.00
2023-03-26T22:13:51.051Z,5.30
2023-03-26T22:16:27.743Z,4.80
2023-03-26T22:18:55.873Z,4.30
2023-03-26T22:21:24.146Z,4.70
2023-03-26T22:23:55.478Z,5.50
2023-03-26T22:26:31.299Z,5.00
2023-03-26T22:28:59.516Z,4.90
2023-03-26T22:31:30.240Z,5.10
2023-03-26T22:34:07.727Z,4.90
2023-03-26T22:36:36.751Z,5.40
2023-03-26T22:39:07.184Z,5.60
2023-03-26T22:41:44.487Z,5.80
2023-03-26T22:44:19.745Z,6.00
2023-03-26T22:46:52.523Z,5.70
2023-03-26T22:49:40.090Z,5.10
2023-03-26T22:52:08.370Z,4.90
2023-03-26T22:54:46.544Z,4.80
2023-03-26T22:57:15.183Z,4.90
2023-03-26T22:59:43.419Z,4.90
2023-03-26T23:02:22.106Z,4.30
2023-03-26T23:04:50.740Z,4.20
2023-03-26T23:07:18.936Z,4.00
2023-03-26T23:09:55.424Z,4.80
2023-03-26T23:12:23.731Z,4.20
2023-03-26T23:14:53.086Z,4.20
2023-03-26T23:17:21.484Z,4.00
2023-03-26T23:19:49.748Z,3.90
2023-03-26T23:22:17.849Z,3.80
2023-03-26T23:24:45.880Z,4.40
2023-03-26T23:27:13.987Z,4.10
2023-03-26T23:29:42.448Z,4.20
2023-03-26T23:32:24.234Z,3.90
2023-03-26T23:34:53.318Z,4.20
2023-03-26T23:37:23.355Z,4.30
2023-03-26T23:40:32.314Z,3.80
2023-03-26T23:43:10.948Z,3.70
2023-03-26T23:45:48.374Z,3.70
2023-03-26T23:48:24.571Z,4.10
2023-03-26T23:51:03.970Z,4.30
2023-03-26T23:53:32.872Z,4.30
2023-03-26T23:56:01.150Z,4.00
2023-03-26T23:58:32.640Z,4.80
